createdAt,value
2024-01-19T00:00:08.953Z,13.50
2024-01-19T00:02:57.138Z,13.70
2024-01-19T00:05:25.406Z,14.90
2024-01-19T00:07:53.715Z,19.50
2024-01-19T00:10:22.081Z,15.80
2024-01-19T00:12:50.208Z,14.60
2024-01-19T00:15:21.116Z,13.70
2024-01-19T00:17:50.905Z,13.50
2024-01-19T00:20:19.450Z,13.70
2024-01-19T00:22:48.753Z,14.10
2024-01-19T00:25:17.406Z,14.50
2024-01-19T00:27:46.875Z,14.80
2024-01-19T00:30:15.398Z,14.00
2024-01-19T00:32:44.738Z,15.30
2024-01-19T00:35:14.729Z,14.30
2024-01-19T00:37:43.741Z,14.40
2024-01-19T00:40:13.374Z,14.20
2024-01-19T00:42:42.360Z,13.70
2024-01-19T00:45:11.486Z,13.80
2024-01-19T00:47:40.195Z,14.30
2024-01-19T00:50:09.831Z,14.90
2024-01-19T00:52:39.433Z,14.00
2024-01-19T00:55:08.567Z,14.60
2024-01-19T00:57:36.676Z,12.70
2024-01-19T01:00:05.499Z,12.70
2024-01-19T01:02:33.736Z,11.80
2024-01-19T01:05:02.159Z,11.50
2024-01-19T01:07:30.989Z,11.00
2024-01-19T01:09:59.154Z,12.00
2024-01-19T01:12:27.254Z,12.40
2024-01-19T01:14:55.369Z,11.10
2024-01-19T01:17:23.783Z,11.10
2024-01-19T01:19:52.018Z,10.90
2024-01-19T01:22:20.074Z,11.40
2024-01-19T01:24:48.187Z,11.50
2024-01-19T01:27:16.384Z,11.10
2024-01-19T01:29:44.510Z,12.30
2024-01-19T01:32:12.552Z,11.40
2024-01-19T01:34:42.668Z,11.70
2024-01-19T01:37:11.107Z,11.40
2024-01-19T01:39:39.164Z,10.90
2024-01-19T01:42:07.383Z,10.30
2024-01-19T01:44:35.608Z,10.30
2024-01-19T01:47:03.972Z,9.60
2024-01-19T01:49:32.291Z,10.40
2024-01-19T01:52:00.981Z,9.90
2024-01-19T01:54:30.166Z,9.40
2024-01-19T01:56:58.907Z,9.50
2024-01-19T01:59:27.315Z,9.40
2024-01-19T02:01:55.581Z,9.20
2024-01-19T02:04:25.396Z,8.50
2024-01-19T02:06:53.585Z,9.80
2024-01-19T02:09:21.830Z,9.10
2024-01-19T02:11:51.088Z,9.20
2024-01-19T02:14:19.620Z,10.50
2024-01-19T02:16:47.806Z,9.70
2024-01-19T02:19:16.141Z,10.00
2024-01-19T02:21:45.830Z,10.10
2024-01-19T02:24:15.754Z,10.30
2024-01-19T02:26:43.993Z,10.30
2024-01-19T02:29:12.045Z,10.00
2024-01-19T02:31:40.618Z,10.00
2024-01-19T02:34:09.098Z,10.10
2024-01-19T02:36:37.381Z,9.90
2024-01-19T02:39:06.593Z,10.40
2024-01-19T02:41:35.060Z,10.40
2024-01-19T02:44:03.283Z,11.00
2024-01-19T02:46:31.695Z,11.70
2024-01-19T02:49:00.080Z,10.90
2024-01-19T02:51:28.236Z,11.60
2024-01-19T02:53:56.334Z,11.40
2024-01-19T02:56:24.521Z,11.20
2024-01-19T02:58:52.638Z,11.90
2024-01-19T03:01:21.108Z,12.00
2024-01-19T03:03:49.252Z,14.30
2024-01-19T03:06:17.499Z,16.80
2024-01-19T03:08:46.629Z,18.10
2024-01-19T03:11:14.870Z,17.70
2024-01-19T03:13:43.009Z,18.70
2024-01-19T03:16:11.100Z,19.40
2024-01-19T03:18:39.477Z,19.50
2024-01-19T03:21:07.753Z,19.30
2024-01-19T03:23:35.942Z,20.40
2024-01-19T03:26:04.249Z,22.30
2024-01-19T03:28:32.490Z,23.30
2024-01-19T03:31:00.913Z,23.70
2024-01-19T03:33:29.306Z,24.60
2024-01-19T03:35:59.027Z,25.60
2024-01-19T03:38:28.395Z,24.30
2024-01-19T03:40:57.726Z,24.60
2024-01-19T03:43:25.886Z,24.70
2024-01-19T03:45:53.911Z,25.00
2024-01-19T03:48:22.137Z,25.50
2024-01-19T03:50:50.497Z,24.50
2024-01-19T03:53:18.806Z,25.20
2024-01-19T03:55:46.870Z,26.20
2024-01-19T03:58:15.157Z,24.80
2024-01-19T04:00:43.754Z,24.40
2024-01-19T04:03:12.199Z,25.30
2024-01-19T04:05:40.745Z,25.30
2024-01-19T04:08:09.090Z,24.20
2024-01-19T04:10:37.173Z,23.80
2024-01-19T04:13:05.869Z,26.70
2024-01-19T04:15:33.880Z,24.70
2024-01-19T04:18:02.327Z,25.00
2024-01-19T04:20:30.692Z,25.00
2024-01-19T04:22:58.744Z,24.20
2024-01-19T04:25:27.061Z,24.80
2024-01-19T04:27:56.878Z,24.50
2024-01-19T04:30:25.120Z,23.90
2024-01-19T04:32:53.502Z,24.50
2024-01-19T04:35:21.658Z,24.60
2024-01-19T04:37:49.772Z,23.60
2024-01-19T04:40:17.995Z,25.20
2024-01-19T04:42:46.433Z,24.10
2024-01-19T04:45:14.854Z,23.30
2024-01-19T04:47:43.030Z,23.30
2024-01-19T04:50:12.502Z,22.70
2024-01-19T04:52:41.245Z,23.20
2024-01-19T04:55:10.009Z,23.80
2024-01-19T04:57:38.239Z,25.00
2024-01-19T05:00:07.448Z,23.30
2024-01-19T05:02:35.797Z,23.20
2024-01-19T05:05:04.277Z,22.10
2024-01-19T05:07:32.930Z,22.40
2024-01-19T05:10:01.629Z,21.90
2024-01-19T05:12:29.961Z,21.70
2024-01-19T05:14:58.367Z,20.90
2024-01-19T05:17:29.249Z,28.70
2024-01-19T05:19:59.427Z,23.90
2024-01-19T05:22:28.379Z,26.20
2024-01-19T05:24:56.999Z,28.40
2024-01-19T05:27:25.127Z,27.80
2024-01-19T05:29:53.417Z,25.80
2024-01-19T05:32:21.694Z,23.60
2024-01-19T05:34:50.765Z,22.70
2024-01-19T05:37:19.302Z,21.90
2024-01-19T05:39:50.412Z,21.60
2024-01-19T05:42:19.782Z,21.10
2024-01-19T05:44:48.026Z,21.90
2024-01-19T05:47:16.343Z,20.20
2024-01-19T05:49:45.772Z,22.90
2024-01-19T05:52:14.848Z,19.60
2024-01-19T05:54:44.532Z,18.90
2024-01-19T05:57:13.580Z,17.90
2024-01-19T05:59:42.265Z,19.50
2024-01-19T06:02:11.009Z,19.10
2024-01-19T06:04:46.646Z,18.70
2024-01-19T06:07:15.321Z,18.00
2024-01-19T06:09:45.728Z,17.90
2024-01-19T06:12:15.390Z,17.40
2024-01-19T06:14:43.984Z,17.90
2024-01-19T06:17:16.499Z,18.70
2024-01-19T06:19:44.981Z,18.00
2024-01-19T06:22:13.150Z,17.80
2024-01-19T06:24:41.337Z,17.60
2024-01-19T06:27:09.770Z,17.40
2024-01-19T06:29:38.050Z,17.60
2024-01-19T06:32:10.277Z,17.30
2024-01-19T06:34:41.337Z,21.70
2024-01-19T06:37:11.176Z,27.30
2024-01-19T06:39:39.535Z,23.80
2024-01-19T06:42:08.525Z,23.90
2024-01-19T06:44:36.936Z,21.60
2024-01-19T06:47:05.479Z,21.40
2024-01-19T06:49:35.161Z,22.80
2024-01-19T06:52:08.435Z,21.20
2024-01-19T06:54:36.710Z,19.40
2024-01-19T06:57:05.117Z,16.70
2024-01-19T06:59:34.903Z,16.80
2024-01-19T07:02:06.185Z,17.30
2024-01-19T07:04:34.892Z,18.30
2024-01-19T07:07:03.248Z,16.00
2024-01-19T07:09:31.745Z,18.30
2024-01-19T07:12:00.545Z,16.60
2024-01-19T07:14:36.392Z,16.50
2024-01-19T07:17:05.774Z,16.30
2024-01-19T07:19:35.169Z,16.50
2024-01-19T07:22:06.753Z,30.80
2024-01-19T07:24:36.614Z,25.80
2024-01-19T07:27:06.116Z,20.60
2024-01-19T07:29:34.975Z,16.20
2024-01-19T07:32:03.390Z,15.40
2024-01-19T07:34:31.679Z,15.50
2024-01-19T07:37:02.381Z,15.60
2024-01-19T07:39:35.271Z,16.00
2024-01-19T07:42:06.843Z,16.50
2024-01-19T07:44:35.167Z,16.30
2024-01-19T07:47:04.522Z,15.00
2024-01-19T07:49:32.774Z,16.10
2024-01-19T07:52:01.089Z,25.60
2024-01-19T07:54:30.579Z,42.50
2024-01-19T07:57:01.294Z,24.30
2024-01-19T07:59:30.149Z,20.40
2024-01-19T08:02:04.580Z,17.00
2024-01-19T08:04:34.089Z,15.90
2024-01-19T08:07:02.837Z,14.90
2024-01-19T08:09:31.802Z,14.60
2024-01-19T08:12:05.518Z,15.70
2024-01-19T08:14:35.373Z,16.00
2024-01-19T08:17:04.340Z,16.80
2024-01-19T08:19:32.704Z,18.30
2024-01-19T08:22:01.133Z,16.50
2024-01-19T08:24:29.420Z,13.70
2024-01-19T08:27:00.265Z,15.40
2024-01-19T08:29:28.733Z,13.70
2024-01-19T08:31:57.913Z,16.80
2024-01-19T08:34:26.297Z,13.90
2024-01-19T08:36:56.978Z,13.80
2024-01-19T08:39:28.823Z,14.20
2024-01-19T08:41:57.575Z,13.70
2024-01-19T08:44:54.180Z,14.80
2024-01-19T08:47:45.697Z,17.30
2024-01-19T08:50:17.247Z,17.50
2024-01-19T08:52:53.427Z,18.80
2024-01-19T08:55:22.033Z,18.60
2024-01-19T08:57:52.794Z,21.10
2024-01-19T09:00:27.920Z,20.70
2024-01-19T09:03:03.456Z,20.00
2024-01-19T09:05:36.483Z,18.40
2024-01-19T09:08:08.156Z,25.40
2024-01-19T09:10:39.526Z,30.10
2024-01-19T09:13:19.963Z,29.80
2024-01-19T09:15:49.495Z,29.60
2024-01-19T09:18:28.484Z,30.30
2024-01-19T09:21:00.188Z,28.50
2024-01-19T09:23:28.755Z,27.90
2024-01-19T09:26:07.141Z,28.20
2024-01-19T09:28:46.554Z,25.00
2024-01-19T09:31:18.246Z,20.40
2024-01-19T09:34:17.061Z,15.30
2024-01-19T09:36:45.711Z,11.10
2024-01-19T09:40:01.079Z,9.90
2024-01-19T09:43:00.050Z,6.50
2024-01-19T09:45:39.772Z,6.20
2024-01-19T09:48:29.134Z,6.00
2024-01-19T09:51:09.144Z,6.20
2024-01-19T09:53:50.135Z,5.10
2024-01-19T09:56:18.788Z,4.10
2024-01-19T09:58:57.532Z,4.60
2024-01-19T10:01:27.407Z,3.80
2024-01-19T10:04:05.791Z,4.00
2024-01-19T10:06:37.977Z,3.60
2024-01-19T10:09:06.453Z,4.00
2024-01-19T10:11:36.034Z,3.20
2024-01-19T10:14:05.576Z,3.60
2024-01-19T10:16:39.390Z,3.60
2024-01-19T10:19:11.179Z,3.60
2024-01-19T10:21:50.465Z,3.40
2024-01-19T10:29:04.865Z,3.80
2024-01-19T10:31:42.342Z,3.80
2024-01-19T10:34:33.604Z,2.90
2024-01-19T10:37:02.404Z,2.70
2024-01-19T10:39:31.086Z,2.50
2024-01-19T10:42:08.155Z,2.20
2024-01-19T10:44:36.823Z,2.50
2024-01-19T10:47:08.314Z,4.00
2024-01-19T10:49:38.829Z,4.00
2024-01-19T10:52:09.105Z,2.80
2024-01-19T10:54:40.076Z,2.70
2024-01-19T10:57:12.098Z,3.40
2024-01-19T10:59:40.831Z,2.30
2024-01-19T11:02:14.596Z,2.00
2024-01-19T11:04:44.357Z,2.80
2024-01-19T11:07:13.147Z,3.90
2024-01-19T11:09:42.073Z,2.90
2024-01-19T11:12:12.641Z,3.40
2024-01-19T11:14:46.341Z,4.60
2024-01-19T11:17:14.927Z,3.50
2024-01-19T11:19:43.940Z,3.30
2024-01-19T11:22:13.958Z,4.00
2024-01-19T11:24:46.734Z,5.20
2024-01-19T11:27:42.606Z,3.10
2024-01-19T11:30:49.107Z,5.10
2024-01-19T11:33:19.967Z,3.20
2024-01-19T11:35:51.428Z,2.80
2024-01-19T11:38:40.471Z,3.90
2024-01-19T11:41:09.180Z,8.80
2024-01-19T11:43:41.588Z,3.80
2024-01-19T11:46:11.605Z,5.00
2024-01-19T11:48:45.546Z,3.00
2024-01-19T11:51:38.181Z,2.70
2024-01-19T11:54:08.349Z,3.70
2024-01-19T11:56:38.495Z,3.10
2024-01-19T11:59:08.443Z,4.00
2024-01-19T12:01:46.383Z,3.00
2024-01-19T12:04:16.181Z,4.40
2024-01-19T12:06:45.522Z,3.30
2024-01-19T12:09:16.352Z,2.80
2024-01-19T12:11:46.076Z,2.70
2024-01-19T12:14:15.737Z,2.30
2024-01-19T12:16:44.415Z,3.00
2024-01-19T12:19:23.468Z,2.70
2024-01-19T12:21:58.944Z,3.00
2024-01-19T12:24:30.273Z,2.80
2024-01-19T12:27:00.692Z,2.40
2024-01-19T12:29:33.270Z,2.70
2024-01-19T12:32:12.548Z,2.20
2024-01-19T12:34:42.560Z,2.60
2024-01-19T12:37:15.520Z,2.80
2024-01-19T12:39:44.121Z,4.00
2024-01-19T12:42:13.294Z,5.00
2024-01-19T12:44:42.499Z,3.20
2024-01-19T12:47:16.108Z,5.60
2024-01-19T12:49:57.144Z,3.90
2024-01-19T12:52:39.083Z,4.50
2024-01-19T12:55:09.481Z,4.50
2024-01-19T12:57:40.111Z,3.70
2024-01-19T13:00:16.603Z,2.70
2024-01-19T13:02:45.111Z,3.70
2024-01-19T13:05:21.885Z,3.10
2024-01-19T13:07:53.840Z,2.50
2024-01-19T13:10:30.819Z,2.70
2024-01-19T13:13:19.255Z,2.60
2024-01-19T13:15:48.027Z,3.30
2024-01-19T13:18:19.200Z,3.60
2024-01-19T13:20:47.778Z,3.30
2024-01-19T13:23:18.744Z,3.10
2024-01-19T13:25:56.936Z,3.90
2024-01-19T13:28:26.221Z,2.70
2024-01-19T13:30:55.014Z,3.00
2024-01-19T13:33:31.308Z,2.70
2024-01-19T13:36:04.287Z,3.70
2024-01-19T13:38:36.658Z,2.90
2024-01-19T13:41:05.834Z,3.00
2024-01-19T13:43:35.112Z,2.80
2024-01-19T13:46:05.177Z,2.90
2024-01-19T13:48:37.783Z,2.60
2024-01-19T13:51:20.723Z,3.10
2024-01-19T13:53:49.084Z,3.00
2024-01-19T13:56:18.296Z,3.00
2024-01-19T13:58:50.699Z,3.80
2024-01-19T14:01:24.066Z,2.80
2024-01-19T14:03:54.842Z,2.20
2024-01-19T14:06:25.590Z,2.20
2024-01-19T14:08:55.243Z,2.40
2024-01-19T14:11:23.795Z,2.10
2024-01-19T14:13:52.450Z,2.30
2024-01-19T14:16:22.048Z,2.80
2024-01-19T14:18:50.423Z,2.00
2024-01-19T14:21:19.314Z,2.20
2024-01-19T14:23:54.577Z,1.90
2024-01-19T14:26:25.788Z,2.50
2024-01-19T14:28:54.152Z,2.40
2024-01-19T14:31:30.216Z,2.40
2024-01-19T14:33:58.781Z,2.10
2024-01-19T14:36:30.437Z,2.30
2024-01-19T14:38:58.805Z,2.20
2024-01-19T14:41:28.526Z,2.60
2024-01-19T14:44:01.537Z,2.30
2024-01-19T14:46:34.103Z,2.00
2024-01-19T14:49:05.982Z,2.40
2024-01-19T14:51:35.984Z,2.20
2024-01-19T14:54:05.063Z,2.90
2024-01-19T14:56:33.842Z,2.50
2024-01-19T14:59:02.544Z,2.10
2024-01-19T15:01:31.021Z,2.60
2024-01-19T15:03:59.348Z,2.30
2024-01-19T15:06:30.674Z,2.30
2024-01-19T15:08:59.073Z,2.80
2024-01-19T15:11:28.235Z,2.30
2024-01-19T15:13:56.484Z,2.70
2024-01-19T15:16:27.782Z,2.30
2024-01-19T15:18:56.084Z,2.20
2024-01-19T15:21:27.432Z,2.50
2024-01-19T15:23:58.297Z,2.40
2024-01-19T15:26:26.581Z,2.90
2024-01-19T15:28:55.251Z,3.00
2024-01-19T15:31:25.776Z,2.50
2024-01-19T15:33:54.906Z,2.70
2024-01-19T15:36:24.035Z,2.60
2024-01-19T15:38:57.229Z,3.10
2024-01-19T15:41:26.546Z,3.20
2024-01-19T15:43:56.075Z,2.60
2024-01-19T15:46:25.303Z,2.90
2024-01-19T15:49:03.336Z,3.00
2024-01-19T15:51:36.490Z,2.70
2024-01-19T15:54:04.866Z,2.40
2024-01-19T15:56:37.498Z,2.60
2024-01-19T15:59:08.416Z,3.50
2024-01-19T16:01:41.048Z,2.80
2024-01-19T16:04:13.437Z,3.10
2024-01-19T16:06:42.433Z,2.50
2024-01-19T16:09:11.124Z,2.30
2024-01-19T16:11:39.355Z,2.90
2024-01-19T16:14:08.209Z,3.00
2024-01-19T16:16:46.936Z,3.10
2024-01-19T16:19:15.820Z,2.70
2024-01-19T16:21:44.191Z,2.50
2024-01-19T16:24:15.009Z,2.90
2024-01-19T16:26:46.405Z,2.10
2024-01-19T16:29:15.372Z,3.00
2024-01-19T16:31:44.886Z,3.00
2024-01-19T16:34:13.277Z,2.30
2024-01-19T16:36:43.987Z,2.50
2024-01-19T16:39:17.188Z,3.20
2024-01-19T16:41:51.858Z,3.20
2024-01-19T16:44:20.312Z,3.30
2024-01-19T16:46:48.807Z,3.80
2024-01-19T16:49:17.826Z,3.50
2024-01-19T16:51:47.854Z,3.20
2024-01-19T16:54:17.074Z,3.40
2024-01-19T16:56:45.530Z,3.70
2024-01-19T16:59:15.540Z,3.20
2024-01-19T17:01:43.903Z,3.60
2024-01-19T17:04:12.825Z,3.20
2024-01-19T17:06:41.930Z,3.30
2024-01-19T17:09:12.906Z,3.80
2024-01-19T17:11:41.049Z,4.60
2024-01-19T17:14:10.006Z,4.30
2024-01-19T17:16:42.026Z,4.30
2024-01-19T17:19:13.316Z,4.10
2024-01-19T17:21:42.721Z,4.40
2024-01-19T17:24:12.564Z,4.00
2024-01-19T17:26:43.105Z,4.70
2024-01-19T17:29:15.935Z,4.50
2024-01-19T17:31:47.469Z,4.20
2024-01-19T17:34:16.169Z,4.40
2024-01-19T17:36:46.012Z,3.50
2024-01-19T17:39:14.352Z,4.30
2024-01-19T17:41:43.069Z,5.10
2024-01-19T17:44:12.269Z,4.90
2024-01-19T17:46:40.721Z,5.60
2024-01-19T17:49:12.558Z,3.90
2024-01-19T17:51:41.005Z,4.30
2024-01-19T17:54:10.569Z,5.90
2024-01-19T17:56:40.601Z,6.00
2024-01-19T17:59:09.334Z,5.00
2024-01-19T18:01:37.810Z,6.10
2024-01-19T18:04:06.313Z,6.40
2024-01-19T18:06:37.633Z,6.10
2024-01-19T18:09:08.366Z,6.20
2024-01-19T18:11:37.465Z,6.00
2024-01-19T18:14:05.892Z,4.20
2024-01-19T18:16:34.509Z,7.10
2024-01-19T18:19:05.226Z,7.20
2024-01-19T18:21:35.154Z,7.40
2024-01-19T18:24:08.540Z,8.20
2024-01-19T18:26:37.014Z,6.30
2024-01-19T18:29:06.166Z,5.70
2024-01-19T18:31:34.719Z,7.30
2024-01-19T18:34:04.585Z,8.00
2024-01-19T18:36:35.573Z,7.90
2024-01-19T18:39:04.158Z,8.60
2024-01-19T18:41:33.391Z,8.20
2024-01-19T18:44:02.152Z,6.30
2024-01-19T18:46:30.457Z,9.00
2024-01-19T18:49:01.715Z,8.70
2024-01-19T18:51:30.349Z,9.00
2024-01-19T18:54:00.598Z,5.70
2024-01-19T18:56:29.188Z,7.80
2024-01-19T18:58:57.622Z,9.00
2024-01-19T19:01:29.115Z,5.20
2024-01-19T19:03:57.732Z,8.60
2024-01-19T19:06:28.723Z,9.40
2024-01-19T19:08:57.673Z,7.70
2024-01-19T19:11:27.544Z,9.90
2024-01-19T19:14:00.948Z,7.00
2024-01-19T19:16:37.029Z,6.80
2024-01-19T19:19:17.688Z,9.20
2024-01-19T19:21:50.072Z,8.20
2024-01-19T19:24:18.957Z,5.90
2024-01-19T19:26:47.306Z,6.40
2024-01-19T19:29:16.157Z,9.50
2024-01-19T19:31:46.910Z,7.30
2024-01-19T19:34:17.868Z,8.20
2024-01-19T19:36:46.777Z,10.30
2024-01-19T19:39:14.945Z,8.90
2024-01-19T19:41:46.796Z,10.20
2024-01-19T19:44:15.314Z,7.60
2024-01-19T19:46:44.605Z,7.70
2024-01-19T19:49:14.114Z,8.10
2024-01-19T19:51:43.130Z,9.50
2024-01-19T19:54:11.626Z,8.30
2024-01-19T19:56:39.871Z,9.30
2024-01-19T19:59:08.866Z,8.90
2024-01-19T20:01:37.292Z,9.20
2024-01-19T20:04:05.574Z,7.40
2024-01-19T20:06:35.027Z,9.30
2024-01-19T20:09:05.111Z,8.90
2024-01-19T20:11:36.324Z,8.40
2024-01-19T20:14:06.111Z,8.90
2024-01-19T20:16:35.706Z,7.00
2024-01-19T20:19:08.654Z,7.60
2024-01-19T20:21:37.115Z,7.50
2024-01-19T20:24:06.881Z,6.20
2024-01-19T20:26:35.474Z,6.60
2024-01-19T20:29:05.516Z,5.20
2024-01-19T20:31:35.939Z,7.20
2024-01-19T20:34:07.354Z,7.20
2024-01-19T20:36:38.283Z,7.90
2024-01-19T20:39:08.119Z,7.10
2024-01-19T20:41:41.279Z,7.10
2024-01-19T20:44:11.646Z,8.20
2024-01-19T20:46:40.247Z,7.50
2024-01-19T20:49:08.555Z,7.40
2024-01-19T20:51:38.676Z,6.70
2024-01-19T20:54:07.641Z,6.20
2024-01-19T20:56:36.553Z,8.50
2024-01-19T20:59:05.168Z,8.70
2024-01-19T21:01:33.717Z,10.10
2024-01-19T21:04:02.146Z,9.60
2024-01-19T21:06:30.405Z,10.30
2024-01-19T21:08:58.889Z,13.40
2024-01-19T21:11:28.558Z,10.30
2024-01-19T21:13:57.633Z,7.20
2024-01-19T21:16:28.593Z,8.70
2024-01-19T21:18:57.298Z,10.10
2024-01-19T21:21:25.792Z,10.60
2024-01-19T21:23:56.357Z,11.20
2024-01-19T21:26:25.464Z,10.60
2024-01-19T21:28:54.037Z,9.70
2024-01-19T21:31:22.354Z,10.60
2024-01-19T21:33:52.065Z,9.00
2024-01-19T21:36:20.676Z,6.80
2024-01-19T21:38:52.089Z,10.10
2024-01-19T21:41:21.487Z,9.30
2024-01-19T21:43:49.902Z,10.40
2024-01-19T21:46:19.081Z,11.20
2024-01-19T21:48:47.575Z,8.20
2024-01-19T21:51:17.499Z,9.80
2024-01-19T21:53:47.319Z,10.40
2024-01-19T21:56:15.849Z,8.40
2024-01-19T21:58:46.511Z,9.30
2024-01-19T22:01:17.354Z,11.40
2024-01-19T22:03:47.567Z,11.40
2024-01-19T22:06:16.477Z,11.20
2024-01-19T22:08:45.044Z,10.90
2024-01-19T22:11:13.827Z,11.30
2024-01-19T22:13:42.162Z,12.00
2024-01-19T22:16:11.557Z,11.10
2024-01-19T22:18:39.754Z,11.00
2024-01-19T22:21:08.024Z,9.30
2024-01-19T22:23:39.863Z,8.10
2024-01-19T22:26:09.482Z,11.00
2024-01-19T22:28:39.902Z,11.10
2024-01-19T22:31:08.753Z,12.70
2024-01-19T22:33:37.788Z,11.50
2024-01-19T22:36:15.077Z,12.70
2024-01-19T22:38:47.783Z,11.60
2024-01-19T22:41:16.715Z,12.40
2024-01-19T22:43:45.849Z,11.80
2024-01-19T22:46:14.553Z,11.70
2024-01-19T22:48:43.693Z,12.10
2024-01-19T22:51:13.883Z,12.40
2024-01-19T22:53:42.141Z,12.60
2024-01-19T22:56:11.221Z,12.10
2024-01-19T22:58:41.832Z,11.20
2024-01-19T23:01:11.477Z,10.60
2024-01-19T23:03:40.127Z,11.90
2024-01-19T23:06:08.642Z,12.80
2024-01-19T23:08:36.847Z,12.10
2024-01-19T23:11:05.288Z,10.30
2024-01-19T23:13:33.625Z,11.60
2024-01-19T23:16:04.002Z,12.10
2024-01-19T23:18:33.701Z,12.10
2024-01-19T23:21:02.297Z,8.60
2024-01-19T23:23:34.511Z,9.00
2024-01-19T23:26:02.807Z,10.90
2024-01-19T23:28:30.994Z,10.40
2024-01-19T23:30:59.301Z,10.50
2024-01-19T23:33:27.583Z,9.00
2024-01-19T23:35:56.598Z,11.80
2024-01-19T23:38:25.494Z,9.00
2024-01-19T23:40:53.834Z,10.80
2024-01-19T23:43:23.730Z,11.50
2024-01-19T23:45:51.905Z,10.60
2024-01-19T23:48:20.135Z,10.60
2024-01-19T23:50:48.343Z,9.50
2024-01-19T23:53:16.739Z,10.90
2024-01-19T23:55:44.930Z,11.60
2024-01-19T23:58:13.043Z,11.60
